Time;durP1;ratioP1;P1;durP2;ratioP2;P2;SDS_P1;SDS_P2;PMS_P1;PMS_P2;Temp;Humidity;BMP_temperature;BMP_pressure;BME280_temperature;BME280_humidity;BME280_pressure;Samples;Min_cycle;Max_cycle;Signal;HPM_P1;HPM_P2
2021/12/30 00:00:12;;;;;;;96.75;16.63;;;;;;;;;;4994484;28;20029;-36
2021/12/30 00:02:37;;;;;;;83.95;15.85;;;;;;;;;;4994283;28;20474;-36
2021/12/30 00:05:04;;;;;;;79.47;15.02;;;;;;;;;;4994268;28;20037;-36
2021/12/30 00:07:29;;;;;;;111.03;16.63;;;;;;;;;;4994240;28;20053;-36
2021/12/30 00:09:55;;;;;;;91.80;16.42;;;;;;;;;;4994429;28;20496;-36
2021/12/30 00:12:21;;;;;;;59.80;16.92;;;;;;;;;;4994480;28;20492;-36
2021/12/30 00:14:46;;;;;;;63.72;15.30;;;;;;;;;;4994193;28;20367;-41
2021/12/30 00:17:12;;;;;;;107.28;16.65;;;;;;;;;;4994442;28;20030;-41
2021/12/30 00:19:37;;;;;;;66.03;16.05;;;;;;;;;;4994308;28;20034;-36
2021/12/30 00:22:03;;;;;;;69.63;15.52;;;;;;;;;;4993806;28;20046;-38
2021/12/30 00:24:29;;;;;;;57.00;17.80;;;;;;;;;;4994321;28;20034;-38
2021/12/30 00:26:54;;;;;;;97.15;17.45;;;;;;;;;;4994275;28;20034;-38
2021/12/30 00:29:20;;;;;;;79.40;16.65;;;;;;;;;;4993935;28;20385;-37
2021/12/30 00:31:46;;;;;;;57.08;14.80;;;;;;;;;;4976563;28;20034;-36
2021/12/30 00:34:12;;;;;;;70.50;16.75;;;;;;;;;;4993977;28;20379;-37
2021/12/30 00:36:37;;;;;;;62.47;15.93;;;;;;;;;;4994230;28;20714;-36
2021/12/30 00:39:03;;;;;;;75.47;14.45;;;;;;;;;;4994113;28;20101;-39
2021/12/30 00:41:28;;;;;;;53.65;14.68;;;;;;;;;;4992922;28;20121;-40
2021/12/30 00:43:54;;;;;;;96.57;14.55;;;;;;;;;;4993332;28;20049;-37
2021/12/30 00:46:19;;;;;;;110.10;13.88;;;;;;;;;;4993141;28;20093;-36
2021/12/30 00:48:45;;;;;;;80.15;12.30;;;;;;;;;;4994061;28;20049;-38
2021/12/30 00:51:11;;;;;;;124.07;15.63;;;;;;;;;;4993574;28;20113;-38
2021/12/30 00:53:36;;;;;;;76.72;11.85;;;;;;;;;;4993954;28;20026;-37
2021/12/30 00:56:03;;;;;;;23.77;8.77;;;;;;;;;;4993486;28;20414;-37
2021/12/30 00:58:28;;;;;;;11.35;5.78;;;;;;;;;;4993589;28;20026;-36
2021/12/30 01:00:54;;;;;;;61.00;12.48;;;;;;;;;;4993827;28;20042;-36
2021/12/30 01:03:21;;;;;;;67.93;11.93;;;;;;;;;;4992235;28;20492;-37
2021/12/30 01:05:47;;;;;;;42.50;11.75;;;;;;;;;;4993451;28;20026;-37
2021/12/30 01:08:13;;;;;;;76.65;13.38;;;;;;;;;;4993760;28;20078;-36
2021/12/30 01:10:40;;;;;;;88.22;14.73;;;;;;;;;;4993717;28;20045;-37
2021/12/30 01:13:08;;;;;;;73.80;14.88;;;;;;;;;;4993702;28;20441;-37
2021/12/30 01:15:55;;;;;;;85.32;16.23;;;;;;;;;;4993282;28;20022;-37
2021/12/30 01:19:42;;;;;;;92.28;15.27;;;;;;;;;;4993626;28;20034;-37
2021/12/30 01:21:16;;;;;;;74.10;15.20;;;;;;;;;;4984173;28;20064;-37
2021/12/30 01:23:42;;;;;;;90.07;15.30;;;;;;;;;;4992048;28;20492;-37
2021/12/30 01:26:08;;;;;;;136.20;15.40;;;;;;;;;;4993255;28;20030;-38
2021/12/30 01:28:34;;;;;;;62.92;14.80;;;;;;;;;;4993136;28;20041;-37
2021/12/30 01:31:00;;;;;;;89.80;15.35;;;;;;;;;;4993186;28;20026;-37
2021/12/30 01:33:26;;;;;;;60.30;15.30;;;;;;;;;;4993443;28;20030;-36
2021/12/30 01:35:52;;;;;;;77.63;17.23;;;;;;;;;;4993412;28;20022;-37
2021/12/30 01:38:17;;;;;;;73.05;16.58;;;;;;;;;;4993127;28;20049;-37
2021/12/30 01:40:46;;;;;;;76.85;16.05;;;;;;;;;;4993031;28;20038;-37
2021/12/30 01:43:13;;;;;;;67.53;15.98;;;;;;;;;;4993383;28;20034;-37
2021/12/30 01:45:40;;;;;;;72.13;15.27;;;;;;;;;;4975611;28;20430;-37
2021/12/30 01:48:06;;;;;;;121.85;15.40;;;;;;;;;;4993232;28;20030;-36
2021/12/30 01:50:31;;;;;;;59.75;11.75;;;;;;;;;;4992811;28;20490;-36
2021/12/30 01:52:58;;;;;;;30.42;9.27;;;;;;;;;;4993205;28;20030;-36
2021/12/30 01:55:25;;;;;;;96.57;14.05;;;;;;;;;;4993237;28;20105;-37
2021/12/30 01:57:50;;;;;;;97.35;14.32;;;;;;;;;;4993041;28;20031;-36
2021/12/30 02:00:21;;;;;;;108.90;11.90;;;;;;;;;;4992845;28;20056;-37
2021/12/30 02:02:47;;;;;;;73.80;12.55;;;;;;;;;;4993147;28;20023;-36
2021/12/30 02:05:12;;;;;;;97.68;14.05;;;;;;;;;;4993152;28;20054;-37
2021/12/30 02:07:39;;;;;;;34.97;9.23;;;;;;;;;;4993477;28;20493;-36
2021/12/30 02:10:06;;;;;;;66.03;12.38;;;;;;;;;;4996728;28;20474;-36
2021/12/30 02:12:36;;;;;;;142.88;15.85;;;;;;;;;;4996574;28;20034;-37
2021/12/30 02:15:04;;;;;;;162.73;16.60;;;;;;;;;;4996841;28;20026;-36
2021/12/30 02:17:30;;;;;;;133.55;14.18;;;;;;;;;;4996627;28;20057;-37
2021/12/30 02:20:01;;;;;;;33.65;9.15;;;;;;;;;;4996868;28;20486;-37
2021/12/30 02:22:26;;;;;;;52.38;6.10;;;;;;;;;;4996735;28;20065;-36
2021/12/30 02:24:52;;;;;;;56.58;8.82;;;;;;;;;;4996685;28;20132;-36
2021/12/30 02:27:18;;;;;;;8.90;5.43;;;;;;;;;;4996354;28;20606;-36
2021/12/30 02:29:44;;;;;;;47.17;10.85;;;;;;;;;;4996412;28;20026;-36
2021/12/30 02:32:10;;;;;;;102.90;12.90;;;;;;;;;;4996293;28;20117;-36
2021/12/30 02:34:39;;;;;;;173.30;21.08;;;;;;;;;;4996528;28;20038;-36
2021/12/30 02:37:07;;;;;;;288.08;27.38;;;;;;;;;;4996271;28;20023;-36
2021/12/30 02:39:33;;;;;;;200.20;23.27;;;;;;;;;;4996510;28;20036;-36
2021/12/30 02:41:59;;;;;;;140.95;20.17;;;;;;;;;;4996409;28;20035;-36
2021/12/30 02:44:25;;;;;;;180.13;26.30;;;;;;;;;;4996114;28;20057;-36
2021/12/30 02:46:52;;;;;;;127.03;22.27;;;;;;;;;;4996311;28;20069;-36
2021/12/30 02:49:18;;;;;;;141.90;20.23;;;;;;;;;;4996057;28;20050;-36
2021/12/30 02:51:44;;;;;;;84.38;17.70;;;;;;;;;;4996264;28;20381;-36
2021/12/30 02:54:10;;;;;;;184.43;21.88;;;;;;;;;;4996228;28;20031;-36
2021/12/30 02:56:35;;;;;;;58.25;13.63;;;;;;;;;;4995827;28;20105;-38
2021/12/30 02:59:01;;;;;;;41.40;10.98;;;;;;;;;;4995886;28;20079;-36
2021/12/30 03:01:28;;;;;;;96.80;15.77;;;;;;;;;;4996019;28;20030;-36
2021/12/30 03:03:58;;;;;;;156.50;24.23;;;;;;;;;;4996035;28;20103;-37
2021/12/30 03:06:24;;;;;;;27.95;8.93;;;;;;;;;;4996029;28;20029;-36
2021/12/30 03:08:51;;;;;;;146.13;20.70;;;;;;;;;;4995646;28;20108;-37
2021/12/30 03:11:18;;;;;;;138.27;21.17;;;;;;;;;;4995866;28;20034;-37
2021/12/30 03:13:44;;;;;;;116.65;20.50;;;;;;;;;;4995829;28;20026;-37
2021/12/30 03:16:24;;;;;;;125.38;16.42;;;;;;;;;;4995710;28;20034;-37
2021/12/30 03:18:51;;;;;;;53.13;11.90;;;;;;;;;;4995250;28;20028;-37
2021/12/30 03:21:19;;;;;;;93.38;13.77;;;;;;;;;;4995249;28;20038;-37
2021/12/30 03:23:45;;;;;;;111.28;18.33;;;;;;;;;;4995300;28;20069;-38
2021/12/30 03:26:12;;;;;;;113.75;19.75;;;;;;;;;;4995605;28;20109;-37
2021/12/30 03:28:42;;;;;;;151.95;20.50;;;;;;;;;;4995575;28;20030;-38
2021/12/30 03:31:08;;;;;;;169.35;29.25;;;;;;;;;;4995520;28;20429;-38
2021/12/30 03:33:33;;;;;;;96.13;22.27;;;;;;;;;;4995166;28;20022;-38
2021/12/30 03:36:01;;;;;;;133.48;23.08;;;;;;;;;;4995138;28;20085;-38
2021/12/30 03:38:29;;;;;;;155.55;26.55;;;;;;;;;;4995351;28;20018;-38
2021/12/30 03:40:55;;;;;;;120.20;21.80;;;;;;;;;;4995273;28;20022;-37
2021/12/30 03:43:20;;;;;;;139.63;23.00;;;;;;;;;;4995045;28;20394;-38
2021/12/30 03:45:46;;;;;;;121.60;18.92;;;;;;;;;;4994973;28;20018;-38
2021/12/30 03:48:11;;;;;;;89.13;15.90;;;;;;;;;;4993761;28;20027;-38
2021/12/30 03:50:43;;;;;;;61.58;13.45;;;;;;;;;;4994786;28;20046;-38
2021/12/30 03:53:11;;;;;;;28.42;6.82;;;;;;;;;;4994809;28;20057;-38
2021/12/30 03:55:37;;;;;;;67.28;13.57;;;;;;;;;;4995024;28;20395;-38
2021/12/30 03:58:03;;;;;;;67.63;12.23;;;;;;;;;;4994781;28;20026;-39
2021/12/30 04:00:33;;;;;;;43.25;10.13;;;;;;;;;;4995014;28;20571;-39
2021/12/30 04:03:02;;;;;;;69.20;12.55;;;;;;;;;;4994555;28;20110;-39
2021/12/30 04:05:27;;;;;;;27.80;9.82;;;;;;;;;;4994837;28;20031;-39
2021/12/30 04:07:53;;;;;;;95.00;15.45;;;;;;;;;;4994813;28;20037;-39
2021/12/30 04:10:21;;;;;;;71.18;10.50;;;;;;;;;;4994491;28;20030;-39
2021/12/30 04:12:48;;;;;;;100.45;13.07;;;;;;;;;;4994688;28;20034;-40
2021/12/30 04:15:14;;;;;;;76.68;10.85;;;;;;;;;;4994433;28;20105;-40
2021/12/30 04:17:40;;;;;;;149.77;13.90;;;;;;;;;;4994438;28;20116;-38
2021/12/30 04:20:08;;;;;;;27.20;6.70;;;;;;;;;;4994362;28;20030;-39
2021/12/30 04:22:37;;;;;;;35.15;7.53;;;;;;;;;;4994247;28;20038;-40
2021/12/30 04:25:06;;;;;;;27.47;5.77;;;;;;;;;;4994501;28;20104;-40
2021/12/30 04:27:32;;;;;;;59.33;8.07;;;;;;;;;;4994069;28;20022;-39
2021/12/30 04:29:57;;;;;;;53.65;12.80;;;;;;;;;;4994387;28;20038;-40
2021/12/30 04:32:23;;;;;;;50.40;13.20;;;;;;;;;;4994053;28;20526;-40
2021/12/30 04:34:48;;;;;;;28.92;10.95;;;;;;;;;;4994379;28;20418;-40
2021/12/30 04:37:14;;;;;;;36.97;9.52;;;;;;;;;;4994369;28;20045;-40
2021/12/30 04:39:39;;;;;;;38.90;11.43;;;;;;;;;;4994069;28;20023;-39
2021/12/30 04:42:05;;;;;;;27.27;11.48;;;;;;;;;;4994192;28;20046;-39
2021/12/30 04:44:30;;;;;;;42.00;13.40;;;;;;;;;;4994131;28;20030;-39
2021/12/30 04:46:57;;;;;;;20.65;7.28;;;;;;;;;;4993879;28;20030;-40
2021/12/30 04:49:24;;;;;;;51.10;11.48;;;;;;;;;;4993737;28;20115;-40
2021/12/30 04:51:50;;;;;;;61.55;13.05;;;;;;;;;;4994031;28;20031;-41
2021/12/30 04:54:16;;;;;;;73.20;14.20;;;;;;;;;;4993769;28;20082;-40
2021/12/30 04:56:41;;;;;;;22.85;7.03;;;;;;;;;;4993977;28;20117;-41
2021/12/30 04:59:07;;;;;;;25.35;7.13;;;;;;;;;;4993967;28;20033;-40
2021/12/30 05:01:32;;;;;;;85.35;13.07;;;;;;;;;;4993503;28;20027;-40
2021/12/30 05:03:58;;;;;;;61.72;12.35;;;;;;;;;;4993859;28;20026;-40
2021/12/30 05:06:23;;;;;;;103.25;12.93;;;;;;;;;;4993855;28;20470;-41
2021/12/30 05:08:49;;;;;;;124.72;15.43;;;;;;;;;;4993823;28;20363;-40
2021/12/30 05:11:14;;;;;;;127.43;14.23;;;;;;;;;;4993619;28;20064;-40
2021/12/30 05:13:39;;;;;;;118.68;14.82;;;;;;;;;;4993628;28;20022;-40
2021/12/30 05:16:05;;;;;;;153.15;15.20;;;;;;;;;;4993394;28;20077;-40
2021/12/30 05:18:32;;;;;;;93.63;10.00;;;;;;;;;;4993609;28;20077;-39
2021/12/30 05:21:04;;;;;;;45.75;12.20;;;;;;;;;;4993556;28;20034;-40
2021/12/30 05:23:30;;;;;;;56.90;10.02;;;;;;;;;;4993688;28;20108;-41
2021/12/30 05:25:56;;;;;;;61.58;11.82;;;;;;;;;;4993388;28;20482;-41
2021/12/30 05:28:22;;;;;;;151.40;17.55;;;;;;;;;;4993505;28;20037;-41
2021/12/30 05:30:48;;;;;;;141.15;18.40;;;;;;;;;;4993518;28;20053;-42
2021/12/30 05:33:13;;;;;;;100.63;14.18;;;;;;;;;;4993483;28;20045;-41
2021/12/30 05:35:39;;;;;;;173.30;19.70;;;;;;;;;;4993198;28;20382;-46
2021/12/30 05:38:05;;;;;;;158.05;18.73;;;;;;;;;;4993134;28;20504;-42
2021/12/30 05:40:32;;;;;;;152.77;16.85;;;;;;;;;;4993545;28;20035;-43
2021/12/30 05:42:57;;;;;;;84.20;16.80;;;;;;;;;;4994446;28;20069;-49
2021/12/30 05:45:23;;;;;;;91.38;17.58;;;;;;;;;;4997526;28;20053;-45
2021/12/30 05:47:50;;;;;;;75.78;16.33;;;;;;;;;;4997200;28;20736;-42
2021/12/30 05:50:19;;;;;;;84.05;16.08;;;;;;;;;;4996999;28;20061;-47
2021/12/30 05:52:47;;;;;;;72.28;15.15;;;;;;;;;;4997432;28;20052;-43
2021/12/30 05:55:13;;;;;;;61.78;14.80;;;;;;;;;;4997306;28;20030;-48
2021/12/30 05:57:40;;;;;;;58.00;14.68;;;;;;;;;;4997356;28;20030;-42
2021/12/30 06:00:08;;;;;;;58.90;16.00;;;;;;;;;;4997372;28;20030;-41
2021/12/30 06:02:34;;;;;;;60.80;14.40;;;;;;;;;;4996869;28;20049;-42
2021/12/30 06:04:59;;;;;;;40.35;13.65;;;;;;;;;;4997251;28;20041;-42
2021/12/30 06:07:25;;;;;;;60.42;15.00;;;;;;;;;;4997017;28;20037;-41
2021/12/30 06:09:51;;;;;;;62.00;14.32;;;;;;;;;;4997155;28;20037;-41
2021/12/30 06:12:16;;;;;;;43.95;14.27;;;;;;;;;;4997195;28;20034;-41
2021/12/30 06:14:42;;;;;;;51.47;16.02;;;;;;;;;;4997116;28;20022;-41
2021/12/30 06:17:08;;;;;;;51.58;14.50;;;;;;;;;;4997122;28;20121;-45
2021/12/30 06:19:33;;;;;;;47.63;15.32;;;;;;;;;;4996790;28;20031;-41
2021/12/30 06:21:59;;;;;;;60.95;14.23;;;;;;;;;;4996869;28;20030;-47
2021/12/30 06:24:24;;;;;;;48.45;13.63;;;;;;;;;;4996629;28;20034;-51
2021/12/30 06:26:50;;;;;;;46.15;13.88;;;;;;;;;;4997093;28;20037;-48
2021/12/30 06:29:15;;;;;;;42.80;13.32;;;;;;;;;;4996547;28;20026;-41
2021/12/30 06:31:42;;;;;;;57.92;13.55;;;;;;;;;;4996639;28;20026;-45
2021/12/30 06:34:08;;;;;;;43.35;13.40;;;;;;;;;;4996411;28;20030;-43
2021/12/30 06:36:34;;;;;;;45.28;13.63;;;;;;;;;;4996687;28;20032;-43
2021/12/30 06:39:00;;;;;;;43.42;13.93;;;;;;;;;;4996619;28;20033;-43
2021/12/30 06:41:25;;;;;;;44.35;13.30;;;;;;;;;;4996582;28;20107;-49
2021/12/30 06:43:51;;;;;;;49.10;14.70;;;;;;;;;;4996466;28;20449;-46
2021/12/30 06:46:19;;;;;;;36.85;12.95;;;;;;;;;;4996730;28;20375;-51
2021/12/30 06:48:46;;;;;;;40.25;14.07;;;;;;;;;;4996599;28;20034;-48
2021/12/30 06:51:13;;;;;;;43.65;13.48;;;;;;;;;;4996151;28;20494;-46
2021/12/30 06:53:39;;;;;;;53.15;13.63;;;;;;;;;;4996059;28;20482;-45
2021/12/30 06:56:04;;;;;;;40.30;13.85;;;;;;;;;;4996390;28;20066;-43
2021/12/30 06:58:30;;;;;;;43.83;12.52;;;;;;;;;;4996004;28;20351;-45
2021/12/30 07:00:57;;;;;;;42.85;11.27;;;;;;;;;;4996277;28;20027;-50
2021/12/30 07:03:23;;;;;;;49.80;11.25;;;;;;;;;;4995936;28;20467;-45
2021/12/30 07:05:51;;;;;;;58.30;12.63;;;;;;;;;;4996188;28;20149;-42
2021/12/30 07:08:17;;;;;;;44.88;11.25;;;;;;;;;;4996151;28;20050;-42
2021/12/30 07:10:42;;;;;;;54.13;11.93;;;;;;;;;;4996078;28;20510;-48
2021/12/30 07:13:08;;;;;;;57.97;11.68;;;;;;;;;;4995928;28;20486;-42
2021/12/30 07:15:33;;;;;;;70.82;12.52;;;;;;;;;;4995924;28;20371;-47
2021/12/30 07:17:59;;;;;;;58.33;13.32;;;;;;;;;;4995904;28;20030;-46
2021/12/30 07:20:24;;;;;;;40.83;13.30;;;;;;;;;;4995617;28;20431;-41
2021/12/30 07:22:50;;;;;;;33.65;12.32;;;;;;;;;;4995354;28;20034;-43
2021/12/30 07:25:16;;;;;;;48.03;11.98;;;;;;;;;;4995440;28;20037;-43
2021/12/30 07:27:47;;;;;;;25.35;9.43;;;;;;;;;;4995730;28;20065;-47
2021/12/30 07:30:12;;;;;;;40.92;11.13;;;;;;;;;;4995732;28;20050;-41
2021/12/30 07:32:38;;;;;;;85.40;43.58;;;;;;;;;;4995656;28;20469;-47
2021/12/30 07:35:05;;;;;;;38.13;10.15;;;;;;;;;;4995522;28;20026;-49
2021/12/30 07:37:30;;;;;;;18.00;7.00;;;;;;;;;;4995621;28;20025;-48
2021/12/30 07:39:55;;;;;;;14.40;6.25;;;;;;;;;;4995353;28;20026;-47
2021/12/30 07:42:21;;;;;;;36.75;9.93;;;;;;;;;;4995423;28;20026;-41
2021/12/30 07:44:47;;;;;;;15.43;5.38;;;;;;;;;;4995207;28;20109;-46
2021/12/30 07:47:12;;;;;;;35.70;10.60;;;;;;;;;;4994912;28;20033;-46
2021/12/30 07:49:38;;;;;;;27.40;9.05;;;;;;;;;;4995011;28;20065;-41
2021/12/30 07:52:05;;;;;;;18.67;6.75;;;;;;;;;;4995243;28;20037;-43
2021/12/30 07:54:31;;;;;;;24.65;7.95;;;;;;;;;;4995257;28;20049;-44
2021/12/30 07:56:57;;;;;;;30.40;9.73;;;;;;;;;;4994984;28;20387;-41
2021/12/30 07:59:22;;;;;;;24.63;8.98;;;;;;;;;;4993863;28;20030;-41
2021/12/30 08:01:48;;;;;;;28.13;8.25;;;;;;;;;;4994649;28;20474;-42
2021/12/30 08:04:13;;;;;;;25.73;8.60;;;;;;;;;;4994623;28;20018;-43
2021/12/30 08:06:39;;;;;;;29.63;10.93;;;;;;;;;;4993900;28;20025;-42
2021/12/30 08:09:06;;;;;;;52.03;12.68;;;;;;;;;;4994940;28;20177;-43
2021/12/30 08:11:31;;;;;;;28.73;9.00;;;;;;;;;;4993892;28;20045;-41
2021/12/30 08:13:59;;;;;;;33.25;9.40;;;;;;;;;;4994944;28;20022;-43
2021/12/30 08:16:25;;;;;;;35.88;10.40;;;;;;;;;;4994430;28;20033;-41
2021/12/30 08:18:50;;;;;;;31.95;10.38;;;;;;;;;;4994644;28;20073;-48
2021/12/30 08:21:16;;;;;;;37.13;12.50;;;;;;;;;;4994593;28;20394;-42
2021/12/30 08:23:41;;;;;;;39.10;12.25;;;;;;;;;;4994663;28;20588;-46
2021/12/30 08:26:07;;;;;;;36.60;10.77;;;;;;;;;;4994725;28;20100;-43
2021/12/30 08:28:32;;;;;;;60.67;16.60;;;;;;;;;;4994606;28;20052;-45
2021/12/30 08:30:58;;;;;;;54.28;12.63;;;;;;;;;;4994487;28;20033;-42
2021/12/30 08:33:24;;;;;;;56.05;16.45;;;;;;;;;;4994803;28;20053;-45
2021/12/30 08:35:50;;;;;;;50.30;14.05;;;;;;;;;;4994225;28;20025;-39
2021/12/30 08:38:17;;;;;;;42.45;14.10;;;;;;;;;;4994320;28;20026;-45
2021/12/30 08:40:47;;;;;;;55.75;15.10;;;;;;;;;;4994269;28;20157;-42
2021/12/30 08:43:13;;;;;;;31.13;9.32;;;;;;;;;;4994139;28;20065;-41
2021/12/30 08:45:39;;;;;;;47.80;12.88;;;;;;;;;;4994215;28;20030;-40
2021/12/30 08:48:05;;;;;;;30.17;8.13;;;;;;;;;;4994124;28;20379;-42
2021/12/30 08:50:31;;;;;;;25.63;9.30;;;;;;;;;;4993636;28;20039;-40
2021/12/30 08:52:58;;;;;;;34.97;10.80;;;;;;;;;;4993848;28;20133;-42
2021/12/30 08:55:24;;;;;;;25.58;9.52;;;;;;;;;;4993696;28;20463;-40
2021/12/30 08:57:52;;;;;;;41.83;10.85;;;;;;;;;;4993769;28;20033;-42
2021/12/30 09:00:22;;;;;;;32.35;11.05;;;;;;;;;;4993535;28;20367;-41
2021/12/30 09:02:48;;;;;;;28.63;9.35;;;;;;;;;;4993529;28;20046;-42
2021/12/30 09:05:14;;;;;;;17.30;5.97;;;;;;;;;;4993445;28;20023;-43
2021/12/30 09:07:39;;;;;;;35.30;10.45;;;;;;;;;;4993776;28;20092;-43
2021/12/30 09:10:07;;;;;;;23.42;7.88;;;;;;;;;;4993807;28;20466;-42
2021/12/30 09:12:33;;;;;;;28.88;9.30;;;;;;;;;;4992242;28;20053;-40
2021/12/30 09:14:59;;;;;;;27.92;10.25;;;;;;;;;;4993422;28;20058;-41
2021/12/30 09:17:25;;;;;;;30.63;10.68;;;;;;;;;;4993733;28;20053;-46
2021/12/30 09:19:50;;;;;;;17.30;6.13;;;;;;;;;;4993656;28;20489;-46
2021/12/30 09:22:16;;;;;;;28.27;10.93;;;;;;;;;;4993398;28;20037;-44
2021/12/30 09:24:41;;;;;;;20.13;8.27;;;;;;;;;;4993273;28;20458;-48
2021/12/30 09:27:07;;;;;;;32.35;10.55;;;;;;;;;;4993546;28;20033;-41
2021/12/30 09:29:32;;;;;;;33.03;11.77;;;;;;;;;;4993466;28;20026;-46
2021/12/30 09:31:58;;;;;;;27.10;10.52;;;;;;;;;;4993060;28;20038;-41
2021/12/30 09:34:24;;;;;;;26.10;9.10;;;;;;;;;;4993140;28;20038;-43
2021/12/30 09:36:49;;;;;;;31.33;11.27;;;;;;;;;;4993518;28;20067;-41
2021/12/30 09:39:16;;;;;;;26.52;10.10;;;;;;;;;;4993400;28;20057;-39
2021/12/30 09:41:44;;;;;;;19.23;7.93;;;;;;;;;;4993632;28;20108;-40
2021/12/30 09:44:13;;;;;;;20.15;8.25;;;;;;;;;;4993536;28;20097;-48
2021/12/30 09:46:39;;;;;;;18.30;7.00;;;;;;;;;;4993200;28;20081;-39
2021/12/30 09:49:07;;;;;;;23.85;8.75;;;;;;;;;;4993110;28;20026;-42
2021/12/30 09:51:35;;;;;;;25.83;10.55;;;;;;;;;;4993144;28;20105;-41
2021/12/30 09:54:01;;;;;;;24.05;9.73;;;;;;;;;;4991913;28;20026;-41
2021/12/30 09:56:28;;;;;;;23.73;9.73;;;;;;;;;;4993378;28;20385;-40
2021/12/30 09:58:54;;;;;;;23.63;8.70;;;;;;;;;;4993400;28;20038;-41
2021/12/30 10:01:20;;;;;;;20.75;8.77;;;;;;;;;;4993285;28;20109;-39
2021/12/30 10:03:46;;;;;;;22.75;8.57;;;;;;;;;;4992825;28;20447;-48
2021/12/30 10:06:14;;;;;;;23.25;9.45;;;;;;;;;;4992963;28;20474;-39
2021/12/30 10:08:58;;;;;;;21.23;8.80;;;;;;;;;;4992792;28;20528;-41
2021/12/30 10:11:25;;;;;;;22.98;9.18;;;;;;;;;;4992874;28;20058;-42
2021/12/30 10:13:59;;;;;;;23.15;8.82;;;;;;;;;;4993065;28;20018;-40
2021/12/30 10:16:26;;;;;;;25.38;11.23;;;;;;;;;;4993044;28;20550;-40
2021/12/30 10:19:05;;;;;;;22.38;8.88;;;;;;;;;;4992722;28;20474;-40
2021/12/30 10:21:40;;;;;;;24.60;10.35;;;;;;;;;;4992611;28;20437;-38
2021/12/30 10:24:08;;;;;;;28.13;10.05;;;;;;;;;;4992839;28;20019;-38
2021/12/30 10:26:55;;;;;;;27.30;9.70;;;;;;;;;;4992848;28;20052;-42
2021/12/30 10:29:21;;;;;;;22.67;10.20;;;;;;;;;;4994146;28;20030;-38
2021/12/30 10:31:48;;;;;;;26.92;10.30;;;;;;;;;;4996193;28;20026;-43
2021/12/30 10:34:16;;;;;;;24.52;9.57;;;;;;;;;;4996149;28;20110;-41
2021/12/30 10:36:47;;;;;;;23.65;10.35;;;;;;;;;;4996449;28;20073;-37
2021/12/30 10:39:24;;;;;;;31.98;12.02;;;;;;;;;;4996487;28;20046;-38
2021/12/30 10:41:53;;;;;;;25.98;11.38;;;;;;;;;;4995987;28;20030;-38
2021/12/30 10:44:19;;;;;;;30.52;11.13;;;;;;;;;;4996305;28;20077;-41
2021/12/30 10:46:46;;;;;;;33.67;10.95;;;;;;;;;;4996230;28;20097;-39
2021/12/30 10:49:25;;;;;;;27.83;10.23;;;;;;;;;;4995841;28;20093;-40
2021/12/30 10:51:53;;;;;;;31.45;11.93;;;;;;;;;;4996142;28;20034;-40
2021/12/30 10:54:20;;;;;;;35.65;12.68;;;;;;;;;;4995891;28;20510;-39
2021/12/30 10:56:50;;;;;;;37.42;11.98;;;;;;;;;;4996424;28;20072;-39
2021/12/30 10:59:20;;;;;;;37.00;14.60;;;;;;;;;;4996753;28;20027;-38
2021/12/30 11:01:58;;;;;;;30.52;13.70;;;;;;;;;;4996601;28;20398;-38
2021/12/30 11:04:39;;;;;;;28.50;12.23;;;;;;;;;;4996580;28;20386;-40
2021/12/30 11:07:06;;;;;;;31.88;13.20;;;;;;;;;;4996455;28;20419;-39
2021/12/30 11:09:31;;;;;;;36.60;13.48;;;;;;;;;;4996078;28;20057;-38
2021/12/30 11:11:59;;;;;;;40.97;14.15;;;;;;;;;;4996060;28;20058;-38
2021/12/30 11:14:30;;;;;;;38.40;15.43;;;;;;;;;;4996026;28;20113;-40
2021/12/30 11:17:05;;;;;;;38.40;13.85;;;;;;;;;;4996039;28;20022;-38
2021/12/30 11:19:35;;;;;;;32.40;13.75;;;;;;;;;;4995954;28;20030;-40
2021/12/30 11:22:03;;;;;;;42.42;14.43;;;;;;;;;;4995718;28;20030;-39
2021/12/30 11:24:30;;;;;;;37.15;13.27;;;;;;;;;;4995787;28;20033;-38
2021/12/30 11:26:57;;;;;;;32.13;12.68;;;;;;;;;;4995707;28;20117;-38
2021/12/30 11:29:23;;;;;;;27.73;11.80;;;;;;;;;;4995816;28;20065;-39
2021/12/30 11:31:50;;;;;;;39.97;15.63;;;;;;;;;;4995199;28;20034;-40
2021/12/30 11:34:18;;;;;;;31.77;12.77;;;;;;;;;;4994862;28;20030;-38
2021/12/30 11:36:43;;;;;;;32.75;13.63;;;;;;;;;;4995000;28;20084;-38
2021/12/30 11:39:15;;;;;;;31.63;13.57;;;;;;;;;;4994991;28;20105;-38
2021/12/30 11:41:44;;;;;;;37.28;14.13;;;;;;;;;;4993835;28;20493;-38
2021/12/30 11:44:09;;;;;;;38.45;14.15;;;;;;;;;;4994884;28;20437;-38
2021/12/30 11:46:41;;;;;;;37.85;14.50;;;;;;;;;;4995000;28;20105;-38
2021/12/30 11:49:08;;;;;;;33.40;12.98;;;;;;;;;;4994615;28;20025;-39
2021/12/30 11:51:48;;;;;;;41.22;12.65;;;;;;;;;;4994705;28;20382;-37
2021/12/30 11:54:39;;;;;;;41.20;13.80;;;;;;;;;;4994676;28;20018;-37
2021/12/30 11:57:28;;;;;;;33.65;11.93;;;;;;;;;;4993213;28;20034;-37
2021/12/30 12:00:20;;;;;;;27.08;10.55;;;;;;;;;;4993962;28;20034;-39
2021/12/30 12:02:45;;;;;;;22.48;9.50;;;;;;;;;;4975355;28;20036;-38
2021/12/30 12:05:42;;;;;;;21.38;8.52;;;;;;;;;;4976070;28;20035;-37
2021/12/30 12:08:13;;;;;;;29.30;10.45;;;;;;;;;;4974489;28;20059;-38
2021/12/30 12:10:44;;;;;;;22.35;9.32;;;;;;;;;;4973829;28;20077;-40
2021/12/30 12:13:35;;;;;;;34.00;11.55;;;;;;;;;;4973786;28;20378;-38
2021/12/30 12:16:04;;;;;;;19.42;9.70;;;;;;;;;;4973924;28;20031;-39
2021/12/30 12:18:30;;;;;;;20.88;9.05;;;;;;;;;;4973737;28;20439;-38
2021/12/30 12:21:03;;;;;;;25.85;10.40;;;;;;;;;;4973399;28;20113;-42
2021/12/30 12:23:34;;;;;;;18.95;8.20;;;;;;;;;;4987621;28;20118;-37
2021/12/30 12:26:07;;;;;;;;;;;;;;;;;;4993299;28;20478;-37
2021/12/30 12:28:33;;;;;;;21.88;9.23;;;;;;;;;;4990812;28;20293;-36
2021/12/30 12:30:59;;;;;;;19.00;8.95;;;;;;;;;;4992535;28;20022;-37
2021/12/30 12:33:28;;;;;;;24.33;10.40;;;;;;;;;;4993929;28;20114;-37
2021/12/30 12:35:54;;;;;;;22.17;10.07;;;;;;;;;;4993283;28;20026;-37
2021/12/30 12:38:44;;;;;;;20.17;9.30;;;;;;;;;;4993049;28;20061;-36
2021/12/30 12:41:26;;;;;;;22.47;9.77;;;;;;;;;;4992649;28;20447;-38
2021/12/30 12:44:03;;;;;;;17.55;7.53;;;;;;;;;;4993526;28;20038;-36
2021/12/30 12:46:49;;;;;;;23.88;9.80;;;;;;;;;;4994138;28;20018;-37
2021/12/30 12:49:35;;;;;;;24.52;10.45;;;;;;;;;;4992770;28;20042;-37
2021/12/30 12:52:02;;;;;;;21.50;10.15;;;;;;;;;;4993230;28;20402;-37
2021/12/30 12:54:44;;;;;;;18.02;8.60;;;;;;;;;;4993642;28;20030;-36
2021/12/30 12:57:13;;;;;;;16.33;7.07;;;;;;;;;;4993781;28;20061;-40
2021/12/30 12:59:40;;;;;;;23.50;8.18;;;;;;;;;;4993596;28;20369;-39
2021/12/30 13:02:07;;;;;;;20.95;8.13;;;;;;;;;;4993416;28;20108;-37
2021/12/30 13:04:34;;;;;;;22.38;8.65;;;;;;;;;;4993386;28;20901;-37
2021/12/30 13:07:10;;;;;;;15.35;6.88;;;;;;;;;;4992736;28;20430;-38
2021/12/30 13:09:36;;;;;;;20.75;8.63;;;;;;;;;;4992447;28;20453;-37
2021/12/30 13:12:05;;;;;;;19.65;9.68;;;;;;;;;;4992523;28;20106;-38
2021/12/30 13:14:31;;;;;;;25.92;9.18;;;;;;;;;;4991414;28;20034;-37
2021/12/30 13:17:00;;;;;;;12.65;6.38;;;;;;;;;;4992232;28;20466;-37
2021/12/30 13:19:40;;;;;;;27.10;9.65;;;;;;;;;;4992179;28;20540;-37
2021/12/30 13:22:11;;;;;;;26.40;9.85;;;;;;;;;;4991808;28;20378;-36
2021/12/30 13:24:46;;;;;;;26.38;9.27;;;;;;;;;;4991632;28;20034;-39
2021/12/30 13:27:14;;;;;;;25.00;9.85;;;;;;;;;;4992043;28;20370;-44
2021/12/30 13:29:47;;;;;;;26.98;9.43;;;;;;;;;;4992431;28;20034;-37
2021/12/30 13:32:17;;;;;;;23.58;9.07;;;;;;;;;;4989119;28;20023;-37
2021/12/30 13:35:07;;;;;;;28.67;10.23;;;;;;;;;;4991857;28;20034;-37
2021/12/30 13:37:38;;;;;;;25.15;10.45;;;;;;;;;;4992077;28;20039;-36
2021/12/30 13:40:12;;;;;;;25.08;9.73;;;;;;;;;;4992287;28;20022;-37
2021/12/30 13:42:47;;;;;;;24.63;8.98;;;;;;;;;;4991908;28;20066;-37
2021/12/30 13:45:12;;;;;;;28.30;9.00;;;;;;;;;;4992106;28;20034;-38
2021/12/30 13:47:41;;;;;;;27.70;10.05;;;;;;;;;;4992019;28;20026;-36
2021/12/30 13:50:13;;;;;;;24.50;10.25;;;;;;;;;;4991635;28;20117;-37
2021/12/30 13:52:40;;;;;;;30.08;10.23;;;;;;;;;;4991753;28;20041;-38
2021/12/30 13:55:25;;;;;;;28.23;11.27;;;;;;;;;;4991783;28;20031;-37
2021/12/30 13:58:13;;;;;;;22.73;9.95;;;;;;;;;;4991743;28;20022;-45
2021/12/30 14:01:01;;;;;;;25.25;9.68;;;;;;;;;;4991579;28;20243;-36
2021/12/30 14:03:36;;;;;;;21.88;7.68;;;;;;;;;;4987553;28;20045;-36
2021/12/30 14:06:07;;;;;;;20.58;8.15;;;;;;;;;;4995267;28;20034;-37
2021/12/30 14:08:34;;;;;;;26.20;10.32;;;;;;;;;;4995794;28;20462;-36
2021/12/30 14:11:02;;;;;;;21.05;9.20;;;;;;;;;;4996020;28;20037;-37
2021/12/30 14:13:45;;;;;;;24.73;9.77;;;;;;;;;;4995872;28;20062;-37
2021/12/30 14:16:26;;;;;;;18.92;7.60;;;;;;;;;;4995041;28;20033;-38
2021/12/30 14:18:56;;;;;;;24.00;8.43;;;;;;;;;;4994358;28;20478;-37
2021/12/30 14:21:24;;;;;;;27.85;10.73;;;;;;;;;;4993819;28;20022;-36
2021/12/30 14:23:53;;;;;;;24.60;9.23;;;;;;;;;;4995166;28;20486;-36